sensor_id;sensor_type;location;lat;lon;timestamp;P1;durP1;ratioP1;P2;durP2;ratioP2
11228;SDS011;5671;47.936;8.716;2024-03-02T00:01:05;14.43;;;12.93;;
11228;SDS011;5671;47.936;8.716;2024-03-02T00:03:32;13.27;;;11.77;;
11228;SDS011;5671;47.936;8.716;2024-03-02T00:05:59;13.63;;;11.07;;
11228;SDS011;5671;47.936;8.716;2024-03-02T00:08:26;13.67;;;12.07;;
11228;SDS011;5671;47.936;8.716;2024-03-02T00:10:57;13.03;;;11.63;;
11228;SDS011;5671;47.936;8.716;2024-03-02T00:13:24;13.23;;;11.83;;
11228;SDS011;5671;47.936;8.716;2024-03-02T00:15:52;13.50;;;12.10;;
11228;SDS011;5671;47.936;8.716;2024-03-02T00:18:24;12.97;;;11.67;;
11228;SDS011;5671;47.936;8.716;2024-03-02T00:20:53;14.27;;;12.87;;
11228;SDS011;5671;47.936;8.716;2024-03-02T00:23:22;13.30;;;11.90;;
11228;SDS011;5671;47.936;8.716;2024-03-02T00:25:49;13.10;;;11.80;;
11228;SDS011;5671;47.936;8.716;2024-03-02T00:28:20;13.70;;;12.30;;
11228;SDS011;5671;47.936;8.716;2024-03-02T00:30:59;13.70;;;12.20;;
11228;SDS011;5671;47.936;8.716;2024-03-02T00:33:31;12.57;;;11.37;;
11228;SDS011;5671;47.936;8.716;2024-03-02T00:35:59;12.07;;;10.97;;
11228;SDS011;5671;47.936;8.716;2024-03-02T00:38:28;12.77;;;11.57;;
11228;SDS011;5671;47.936;8.716;2024-03-02T00:40:55;11.83;;;10.80;;
11228;SDS011;5671;47.936;8.716;2024-03-02T00:43:42;13.00;;;11.57;;
11228;SDS011;5671;47.936;8.716;2024-03-02T00:46:12;12.73;;;11.27;;
11228;SDS011;5671;47.936;8.716;2024-03-02T00:48:46;12.53;;;11.33;;
11228;SDS011;5671;47.936;8.716;2024-03-02T00:51:16;12.93;;;11.53;;
11228;SDS011;5671;47.936;8.716;2024-03-02T00:53:43;13.47;;;12.17;;
11228;SDS011;5671;47.936;8.716;2024-03-02T00:56:10;13.20;;;11.90;;
11228;SDS011;5671;47.936;8.716;2024-03-02T00:58:38;13.10;;;11.83;;
11228;SDS011;5671;47.936;8.716;2024-03-02T01:01:05;13.97;;;12.57;;
11228;SDS011;5671;47.936;8.716;2024-03-02T01:03:32;13.07;;;11.70;;
11228;SDS011;5671;47.936;8.716;2024-03-02T01:06:00;12.43;;;11.30;;
11228;SDS011;5671;47.936;8.716;2024-03-02T01:08:27;12.30;;;11.07;;
11228;SDS011;5671;47.936;8.716;2024-03-02T01:10:54;12.43;;;11.33;;
11228;SDS011;5671;47.936;8.716;2024-03-02T01:13:21;12.50;;;11.03;;
11228;SDS011;5671;47.936;8.716;2024-03-02T01:15:49;12.27;;;11.07;;
11228;SDS011;5671;47.936;8.716;2024-03-02T01:18:16;12.73;;;11.53;;
11228;SDS011;5671;47.936;8.716;2024-03-02T01:20:43;12.53;;;11.33;;
11228;SDS011;5671;47.936;8.716;2024-03-02T01:23:11;11.93;;;10.80;;
11228;SDS011;5671;47.936;8.716;2024-03-02T01:25:38;11.17;;;10.07;;
11228;SDS011;5671;47.936;8.716;2024-03-02T01:28:05;12.20;;;11.00;;
11228;SDS011;5671;47.936;8.716;2024-03-02T01:30:32;12.67;;;11.43;;
11228;SDS011;5671;47.936;8.716;2024-03-02T01:32:59;11.67;;;10.57;;
11228;SDS011;5671;47.936;8.716;2024-03-02T01:35:27;11.63;;;10.53;;
11228;SDS011;5671;47.936;8.716;2024-03-02T01:37:54;11.30;;;10.20;;
11228;SDS011;5671;47.936;8.716;2024-03-02T01:40:22;10.67;;;9.67;;
11228;SDS011;5671;47.936;8.716;2024-03-02T01:42:51;10.83;;;9.83;;
11228;SDS011;5671;47.936;8.716;2024-03-02T01:45:18;11.30;;;10.20;;
11228;SDS011;5671;47.936;8.716;2024-03-02T01:47:45;11.27;;;10.13;;
11228;SDS011;5671;47.936;8.716;2024-03-02T01:50:12;12.13;;;9.77;;
11228;SDS011;5671;47.936;8.716;2024-03-02T01:52:39;10.53;;;9.53;;
11228;SDS011;5671;47.936;8.716;2024-03-02T01:55:07;11.00;;;9.90;;
11228;SDS011;5671;47.936;8.716;2024-03-02T01:57:36;11.30;;;10.20;;
11228;SDS011;5671;47.936;8.716;2024-03-02T02:00:03;11.50;;;10.40;;
11228;SDS011;5671;47.936;8.716;2024-03-02T02:02:31;10.67;;;9.77;;
11228;SDS011;5671;47.936;8.716;2024-03-02T02:04:58;11.57;;;10.47;;
11228;SDS011;5671;47.936;8.716;2024-03-02T02:07:24;11.10;;;9.87;;
11228;SDS011;5671;47.936;8.716;2024-03-02T02:09:51;11.47;;;10.37;;
11228;SDS011;5671;47.936;8.716;2024-03-02T02:12:18;11.07;;;9.97;;
11228;SDS011;5671;47.936;8.716;2024-03-02T02:14:50;11.07;;;10.07;;
11228;SDS011;5671;47.936;8.716;2024-03-02T02:17:17;12.17;;;10.87;;
11228;SDS011;5671;47.936;8.716;2024-03-02T02:19:44;12.03;;;10.83;;
11228;SDS011;5671;47.936;8.716;2024-03-02T02:22:12;11.40;;;10.30;;
11228;SDS011;5671;47.936;8.716;2024-03-02T02:24:39;11.47;;;10.37;;
11228;SDS011;5671;47.936;8.716;2024-03-02T02:27:07;10.27;;;9.37;;
11228;SDS011;5671;47.936;8.716;2024-03-02T02:29:35;11.57;;;9.40;;
11228;SDS011;5671;47.936;8.716;2024-03-02T02:32:02;10.57;;;9.57;;
11228;SDS011;5671;47.936;8.716;2024-03-02T02:34:29;11.27;;;10.07;;
11228;SDS011;5671;47.936;8.716;2024-03-02T02:36:55;11.50;;;10.40;;
11228;SDS011;5671;47.936;8.716;2024-03-02T02:39:24;10.37;;;9.37;;
11228;SDS011;5671;47.936;8.716;2024-03-02T02:41:51;10.27;;;9.30;;
11228;SDS011;5671;47.936;8.716;2024-03-02T02:44:17;10.43;;;9.43;;
11228;SDS011;5671;47.936;8.716;2024-03-02T02:46:44;10.10;;;9.10;;
11228;SDS011;5671;47.936;8.716;2024-03-02T02:49:11;9.70;;;8.80;;
11228;SDS011;5671;47.936;8.716;2024-03-02T02:51:38;9.97;;;9.07;;
11228;SDS011;5671;47.936;8.716;2024-03-02T02:54:05;10.40;;;9.40;;
11228;SDS011;5671;47.936;8.716;2024-03-02T02:56:33;11.13;;;10.03;;
11228;SDS011;5671;47.936;8.716;2024-03-02T02:59:00;11.10;;;9.93;;
11228;SDS011;5671;47.936;8.716;2024-03-02T03:01:26;10.67;;;9.30;;
11228;SDS011;5671;47.936;8.716;2024-03-02T03:03:53;10.20;;;9.30;;
11228;SDS011;5671;47.936;8.716;2024-03-02T03:08:48;11.83;;;10.67;;
11228;SDS011;5671;47.936;8.716;2024-03-02T03:11:15;10.47;;;9.37;;
11228;SDS011;5671;47.936;8.716;2024-03-02T03:13:43;12.37;;;11.17;;
11228;SDS011;5671;47.936;8.716;2024-03-02T03:16:10;12.70;;;11.40;;
11228;SDS011;5671;47.936;8.716;2024-03-02T03:18:37;11.37;;;10.17;;
11228;SDS011;5671;47.936;8.716;2024-03-02T03:21:04;11.70;;;10.60;;
11228;SDS011;5671;47.936;8.716;2024-03-02T03:23:31;11.93;;;10.73;;
11228;SDS011;5671;47.936;8.716;2024-03-02T03:25:58;12.87;;;11.60;;
11228;SDS011;5671;47.936;8.716;2024-03-02T03:28:25;12.77;;;11.57;;
11228;SDS011;5671;47.936;8.716;2024-03-02T03:30:54;11.40;;;10.30;;
11228;SDS011;5671;47.936;8.716;2024-03-02T03:33:20;12.23;;;10.90;;
11228;SDS011;5671;47.936;8.716;2024-03-02T03:35:47;11.47;;;10.47;;
11228;SDS011;5671;47.936;8.716;2024-03-02T03:38:14;12.97;;;11.73;;
11228;SDS011;5671;47.936;8.716;2024-03-02T03:40:41;12.80;;;10.90;;
11228;SDS011;5671;47.936;8.716;2024-03-02T03:43:09;11.67;;;10.57;;
11228;SDS011;5671;47.936;8.716;2024-03-02T03:45:35;12.10;;;11.03;;
11228;SDS011;5671;47.936;8.716;2024-03-02T03:48:04;13.80;;;10.70;;
11228;SDS011;5671;47.936;8.716;2024-03-02T03:50:31;11.70;;;10.50;;
11228;SDS011;5671;47.936;8.716;2024-03-02T03:52:58;11.63;;;10.53;;
11228;SDS011;5671;47.936;8.716;2024-03-02T03:55:25;12.87;;;11.67;;
11228;SDS011;5671;47.936;8.716;2024-03-02T03:57:51;12.70;;;11.50;;
11228;SDS011;5671;47.936;8.716;2024-03-02T04:00:18;37.30;;;12.93;;
11228;SDS011;5671;47.936;8.716;2024-03-02T04:02:45;15.27;;;12.93;;
11228;SDS011;5671;47.936;8.716;2024-03-02T04:05:13;12.57;;;11.37;;
11228;SDS011;5671;47.936;8.716;2024-03-02T04:07:40;12.60;;;11.30;;
11228;SDS011;5671;47.936;8.716;2024-03-02T04:10:08;13.10;;;11.73;;
11228;SDS011;5671;47.936;8.716;2024-03-02T04:12:36;12.50;;;11.30;;
11228;SDS011;5671;47.936;8.716;2024-03-02T04:15:04;12.77;;;11.43;;
11228;SDS011;5671;47.936;8.716;2024-03-02T04:17:31;12.83;;;11.53;;
11228;SDS011;5671;47.936;8.716;2024-03-02T04:20:00;12.50;;;11.27;;
11228;SDS011;5671;47.936;8.716;2024-03-02T04:22:32;12.37;;;11.17;;
11228;SDS011;5671;47.936;8.716;2024-03-02T04:24:59;13.10;;;11.80;;
11228;SDS011;5671;47.936;8.716;2024-03-02T04:27:27;16.80;;;13.00;;
11228;SDS011;5671;47.936;8.716;2024-03-02T04:29:53;14.53;;;13.03;;
11228;SDS011;5671;47.936;8.716;2024-03-02T04:32:20;14.20;;;12.90;;
11228;SDS011;5671;47.936;8.716;2024-03-02T04:34:47;14.20;;;12.80;;
11228;SDS011;5671;47.936;8.716;2024-03-02T04:37:14;15.77;;;13.40;;
11228;SDS011;5671;47.936;8.716;2024-03-02T04:39:42;16.83;;;14.00;;
11228;SDS011;5671;47.936;8.716;2024-03-02T04:42:09;12.87;;;11.57;;
11228;SDS011;5671;47.936;8.716;2024-03-02T04:44:36;13.50;;;12.10;;
11228;SDS011;5671;47.936;8.716;2024-03-02T04:47:03;17.03;;;13.63;;
11228;SDS011;5671;47.936;8.716;2024-03-02T04:49:30;22.63;;;14.40;;
11228;SDS011;5671;47.936;8.716;2024-03-02T04:51:57;33.47;;;15.20;;
11228;SDS011;5671;47.936;8.716;2024-03-02T04:54:24;23.90;;;12.47;;
11228;SDS011;5671;47.936;8.716;2024-03-02T04:56:52;35.77;;;14.27;;
11228;SDS011;5671;47.936;8.716;2024-03-02T04:59:18;32.37;;;12.17;;
11228;SDS011;5671;47.936;8.716;2024-03-02T05:01:45;43.53;;;13.47;;
11228;SDS011;5671;47.936;8.716;2024-03-02T05:04:13;15.67;;;11.97;;
11228;SDS011;5671;47.936;8.716;2024-03-02T05:06:40;13.43;;;12.03;;
11228;SDS011;5671;47.936;8.716;2024-03-02T05:09:07;32.50;;;13.30;;
11228;SDS011;5671;47.936;8.716;2024-03-02T05:11:34;13.60;;;12.30;;
11228;SDS011;5671;47.936;8.716;2024-03-02T05:14:36;13.20;;;11.90;;
11228;SDS011;5671;47.936;8.716;2024-03-02T05:17:03;12.87;;;11.57;;
11228;SDS011;5671;47.936;8.716;2024-03-02T05:19:31;13.67;;;12.27;;
11228;SDS011;5671;47.936;8.716;2024-03-02T05:21:57;14.20;;;12.70;;
11228;SDS011;5671;47.936;8.716;2024-03-02T05:24:24;14.70;;;13.07;;
11228;SDS011;5671;47.936;8.716;2024-03-02T05:26:53;16.20;;;13.90;;
11228;SDS011;5671;47.936;8.716;2024-03-02T05:29:20;14.23;;;12.73;;
11228;SDS011;5671;47.936;8.716;2024-03-02T05:31:48;14.30;;;12.90;;
11228;SDS011;5671;47.936;8.716;2024-03-02T05:34:15;13.83;;;12.47;;
11228;SDS011;5671;47.936;8.716;2024-03-02T05:36:42;14.10;;;12.60;;
11228;SDS011;5671;47.936;8.716;2024-03-02T05:39:08;13.27;;;11.87;;
11228;SDS011;5671;47.936;8.716;2024-03-02T05:41:35;11.67;;;10.27;;
11228;SDS011;5671;47.936;8.716;2024-03-02T05:44:03;11.70;;;10.57;;
11228;SDS011;5671;47.936;8.716;2024-03-02T05:46:30;12.67;;;11.47;;
11228;SDS011;5671;47.936;8.716;2024-03-02T05:48:58;14.47;;;12.97;;
11228;SDS011;5671;47.936;8.716;2024-03-02T05:51:26;12.90;;;11.70;;
11228;SDS011;5671;47.936;8.716;2024-03-02T05:53:53;13.03;;;11.67;;
11228;SDS011;5671;47.936;8.716;2024-03-02T05:56:20;12.43;;;11.23;;
11228;SDS011;5671;47.936;8.716;2024-03-02T05:58:47;11.17;;;10.03;;
11228;SDS011;5671;47.936;8.716;2024-03-02T06:01:26;11.77;;;10.57;;
11228;SDS011;5671;47.936;8.716;2024-03-02T06:03:54;11.30;;;10.23;;
11228;SDS011;5671;47.936;8.716;2024-03-02T06:06:23;11.07;;;10.07;;
11228;SDS011;5671;47.936;8.716;2024-03-02T06:08:50;11.57;;;10.37;;
11228;SDS011;5671;47.936;8.716;2024-03-02T06:11:17;15.37;;;13.87;;
11228;SDS011;5671;47.936;8.716;2024-03-02T06:13:45;21.23;;;19.03;;
11228;SDS011;5671;47.936;8.716;2024-03-02T06:16:12;26.57;;;22.47;;
11228;SDS011;5671;47.936;8.716;2024-03-02T06:18:38;36.87;;;32.90;;
11228;SDS011;5671;47.936;8.716;2024-03-02T06:21:05;13.23;;;11.97;;
11228;SDS011;5671;47.936;8.716;2024-03-02T06:23:34;12.20;;;11.10;;
11228;SDS011;5671;47.936;8.716;2024-03-02T06:26:01;12.37;;;11.17;;
11228;SDS011;5671;47.936;8.716;2024-03-02T06:28:28;12.50;;;11.30;;
11228;SDS011;5671;47.936;8.716;2024-03-02T06:30:55;12.07;;;10.93;;
11228;SDS011;5671;47.936;8.716;2024-03-02T06:33:22;12.63;;;11.43;;
11228;SDS011;5671;47.936;8.716;2024-03-02T06:35:49;13.07;;;11.87;;
11228;SDS011;5671;47.936;8.716;2024-03-02T06:38:15;12.17;;;11.07;;
11228;SDS011;5671;47.936;8.716;2024-03-02T06:40:44;12.83;;;11.53;;
11228;SDS011;5671;47.936;8.716;2024-03-02T06:43:10;12.30;;;11.00;;
11228;SDS011;5671;47.936;8.716;2024-03-02T06:45:37;13.60;;;12.23;;
11228;SDS011;5671;47.936;8.716;2024-03-02T06:48:04;14.93;;;12.93;;
11228;SDS011;5671;47.936;8.716;2024-03-02T06:50:32;12.83;;;11.57;;
11228;SDS011;5671;47.936;8.716;2024-03-02T06:52:59;15.50;;;10.53;;
11228;SDS011;5671;47.936;8.716;2024-03-02T06:55:26;12.37;;;10.77;;
11228;SDS011;5671;47.936;8.716;2024-03-02T06:57:54;12.20;;;11.00;;
11228;SDS011;5671;47.936;8.716;2024-03-02T07:00:21;13.93;;;11.67;;
11228;SDS011;5671;47.936;8.716;2024-03-02T07:02:49;12.13;;;10.87;;
11228;SDS011;5671;47.936;8.716;2024-03-02T07:05:16;13.63;;;10.60;;
11228;SDS011;5671;47.936;8.716;2024-03-02T07:07:42;13.13;;;11.73;;
11228;SDS011;5671;47.936;8.716;2024-03-02T07:10:09;15.13;;;11.50;;
11228;SDS011;5671;47.936;8.716;2024-03-02T07:12:36;15.13;;;12.40;;
11228;SDS011;5671;47.936;8.716;2024-03-02T07:15:05;13.50;;;12.10;;
11228;SDS011;5671;47.936;8.716;2024-03-02T07:17:55;14.27;;;11.37;;
11228;SDS011;5671;47.936;8.716;2024-03-02T07:20:22;13.77;;;12.33;;
11228;SDS011;5671;47.936;8.716;2024-03-02T07:22:48;14.87;;;12.33;;
11228;SDS011;5671;47.936;8.716;2024-03-02T07:25:15;13.73;;;12.23;;
11228;SDS011;5671;47.936;8.716;2024-03-02T07:27:42;13.10;;;11.73;;
11228;SDS011;5671;47.936;8.716;2024-03-02T07:30:13;15.90;;;10.53;;
11228;SDS011;5671;47.936;8.716;2024-03-02T07:32:41;12.33;;;10.97;;
11228;SDS011;5671;47.936;8.716;2024-03-02T07:35:10;13.13;;;11.60;;
11228;SDS011;5671;47.936;8.716;2024-03-02T07:37:37;13.27;;;10.17;;
11228;SDS011;5671;47.936;8.716;2024-03-02T07:40:05;15.57;;;11.23;;
11228;SDS011;5671;47.936;8.716;2024-03-02T07:42:36;10.77;;;9.70;;
11228;SDS011;5671;47.936;8.716;2024-03-02T07:45:03;10.50;;;9.50;;
11228;SDS011;5671;47.936;8.716;2024-03-02T07:47:32;9.07;;;8.27;;
11228;SDS011;5671;47.936;8.716;2024-03-02T07:49:59;10.07;;;9.13;;
11228;SDS011;5671;47.936;8.716;2024-03-02T07:52:26;9.63;;;8.73;;
11228;SDS011;5671;47.936;8.716;2024-03-02T07:54:53;10.30;;;8.97;;
11228;SDS011;5671;47.936;8.716;2024-03-02T07:57:20;8.97;;;8.07;;
11228;SDS011;5671;47.936;8.716;2024-03-02T07:59:47;8.70;;;7.90;;
11228;SDS011;5671;47.936;8.716;2024-03-02T08:02:14;9.93;;;8.60;;
11228;SDS011;5671;47.936;8.716;2024-03-02T08:04:42;8.37;;;7.57;;
11228;SDS011;5671;47.936;8.716;2024-03-02T08:07:11;8.10;;;7.30;;
11228;SDS011;5671;47.936;8.716;2024-03-02T08:09:38;10.37;;;7.60;;
11228;SDS011;5671;47.936;8.716;2024-03-02T08:12:04;8.60;;;7.80;;
11228;SDS011;5671;47.936;8.716;2024-03-02T08:14:32;8.77;;;7.97;;
11228;SDS011;5671;47.936;8.716;2024-03-02T08:16:58;9.57;;;8.57;;
11228;SDS011;5671;47.936;8.716;2024-03-02T08:19:26;8.83;;;7.93;;
11228;SDS011;5671;47.936;8.716;2024-03-02T08:21:55;9.27;;;8.40;;
11228;SDS011;5671;47.936;8.716;2024-03-02T08:24:21;8.17;;;7.37;;
11228;SDS011;5671;47.936;8.716;2024-03-02T08:26:48;9.07;;;7.00;;
11228;SDS011;5671;47.936;8.716;2024-03-02T08:29:15;8.50;;;7.60;;
11228;SDS011;5671;47.936;8.716;2024-03-02T08:31:42;9.43;;;8.13;;
11228;SDS011;5671;47.936;8.716;2024-03-02T08:34:09;11.10;;;8.80;;
11228;SDS011;5671;47.936;8.716;2024-03-02T08:36:36;10.30;;;8.33;;
11228;SDS011;5671;47.936;8.716;2024-03-02T08:39:04;10.60;;;9.50;;
11228;SDS011;5671;47.936;8.716;2024-03-02T08:41:40;13.13;;;10.00;;
11228;SDS011;5671;47.936;8.716;2024-03-02T08:44:07;11.30;;;9.37;;
11228;SDS011;5671;47.936;8.716;2024-03-02T08:46:34;13.07;;;10.50;;
11228;SDS011;5671;47.936;8.716;2024-03-02T08:49:01;10.90;;;9.50;;
11228;SDS011;5671;47.936;8.716;2024-03-02T08:51:28;11.70;;;8.87;;
11228;SDS011;5671;47.936;8.716;2024-03-02T08:53:55;12.13;;;9.63;;
11228;SDS011;5671;47.936;8.716;2024-03-02T08:56:24;10.17;;;9.13;;
11228;SDS011;5671;47.936;8.716;2024-03-02T08:58:53;11.47;;;9.67;;
11228;SDS011;5671;47.936;8.716;2024-03-02T09:01:20;12.40;;;11.07;;
11228;SDS011;5671;47.936;8.716;2024-03-02T09:03:47;10.37;;;9.27;;
11228;SDS011;5671;47.936;8.716;2024-03-02T09:06:15;12.50;;;9.60;;
11228;SDS011;5671;47.936;8.716;2024-03-02T09:08:42;8.77;;;7.87;;
11228;SDS011;5671;47.936;8.716;2024-03-02T09:11:09;8.60;;;7.70;;
11228;SDS011;5671;47.936;8.716;2024-03-02T09:13:41;11.57;;;8.13;;
11228;SDS011;5671;47.936;8.716;2024-03-02T09:16:09;8.43;;;7.50;;
11228;SDS011;5671;47.936;8.716;2024-03-02T09:18:36;7.80;;;6.57;;
11228;SDS011;5671;47.936;8.716;2024-03-02T09:21:03;7.97;;;7.10;;
11228;SDS011;5671;47.936;8.716;2024-03-02T09:23:30;8.10;;;7.30;;
11228;SDS011;5671;47.936;8.716;2024-03-02T09:25:57;8.20;;;7.40;;
11228;SDS011;5671;47.936;8.716;2024-03-02T09:28:24;6.77;;;6.00;;
11228;SDS011;5671;47.936;8.716;2024-03-02T09:30:53;6.83;;;5.80;;
11228;SDS011;5671;47.936;8.716;2024-03-02T09:33:20;6.97;;;6.27;;
11228;SDS011;5671;47.936;8.716;2024-03-02T09:35:47;6.73;;;6.13;;
11228;SDS011;5671;47.936;8.716;2024-03-02T09:38:14;6.90;;;6.20;;
11228;SDS011;5671;47.936;8.716;2024-03-02T09:40:41;8.13;;;5.47;;
11228;SDS011;5671;47.936;8.716;2024-03-02T09:43:08;7.57;;;6.87;;
11228;SDS011;5671;47.936;8.716;2024-03-02T09:45:36;6.00;;;4.80;;
11228;SDS011;5671;47.936;8.716;2024-03-02T09:48:05;6.60;;;5.90;;
11228;SDS011;5671;47.936;8.716;2024-03-02T09:50:33;6.37;;;5.63;;
11228;SDS011;5671;47.936;8.716;2024-03-02T09:53:00;6.23;;;5.63;;
11228;SDS011;5671;47.936;8.716;2024-03-02T09:55:29;5.47;;;4.97;;
11228;SDS011;5671;47.936;8.716;2024-03-02T09:57:56;5.70;;;5.13;;
11228;SDS011;5671;47.936;8.716;2024-03-02T10:00:23;5.93;;;5.40;;
11228;SDS011;5671;47.936;8.716;2024-03-02T10:02:50;5.57;;;4.87;;
11228;SDS011;5671;47.936;8.716;2024-03-02T10:05:25;7.17;;;5.10;;
11228;SDS011;5671;47.936;8.716;2024-03-02T10:08:02;5.67;;;4.67;;
11228;SDS011;5671;47.936;8.716;2024-03-02T10:10:36;6.63;;;4.70;;
11228;SDS011;5671;47.936;8.716;2024-03-02T10:13:05;5.10;;;4.43;;
11228;SDS011;5671;47.936;8.716;2024-03-02T10:15:33;5.90;;;5.30;;
11228;SDS011;5671;47.936;8.716;2024-03-02T10:18:01;5.63;;;5.00;;
11228;SDS011;5671;47.936;8.716;2024-03-02T10:20:29;6.93;;;5.80;;
11228;SDS011;5671;47.936;8.716;2024-03-02T10:22:59;5.80;;;5.13;;
11228;SDS011;5671;47.936;8.716;2024-03-02T10:25:36;5.20;;;4.70;;
11228;SDS011;5671;47.936;8.716;2024-03-02T10:28:03;5.30;;;4.63;;
11228;SDS011;5671;47.936;8.716;2024-03-02T10:30:31;5.70;;;5.20;;
11228;SDS011;5671;47.936;8.716;2024-03-02T10:32:58;6.10;;;5.20;;
11228;SDS011;5671;47.936;8.716;2024-03-02T10:35:29;5.60;;;5.10;;
11228;SDS011;5671;47.936;8.716;2024-03-02T10:37:58;6.17;;;5.57;;
11228;SDS011;5671;47.936;8.716;2024-03-02T10:40:26;6.93;;;4.33;;
11228;SDS011;5671;47.936;8.716;2024-03-02T10:42:53;4.43;;;4.03;;
11228;SDS011;5671;47.936;8.716;2024-03-02T10:45:21;6.17;;;4.37;;
11228;SDS011;5671;47.936;8.716;2024-03-02T10:47:52;4.83;;;4.33;;
11228;SDS011;5671;47.936;8.716;2024-03-02T10:50:19;4.77;;;3.97;;
11228;SDS011;5671;47.936;8.716;2024-03-02T10:52:47;5.10;;;4.60;;
11228;SDS011;5671;47.936;8.716;2024-03-02T10:55:15;4.77;;;4.30;;
11228;SDS011;5671;47.936;8.716;2024-03-02T10:57:45;4.73;;;3.83;;
11228;SDS011;5671;47.936;8.716;2024-03-02T11:00:18;4.47;;;3.83;;
11228;SDS011;5671;47.936;8.716;2024-03-02T11:02:50;4.23;;;3.60;;
11228;SDS011;5671;47.936;8.716;2024-03-02T11:05:21;6.67;;;6.03;;
11228;SDS011;5671;47.936;8.716;2024-03-02T11:07:57;5.03;;;3.43;;
11228;SDS011;5671;47.936;8.716;2024-03-02T11:10:29;3.40;;;3.10;;
11228;SDS011;5671;47.936;8.716;2024-03-02T11:13:05;4.10;;;3.70;;
11228;SDS011;5671;47.936;8.716;2024-03-02T11:15:35;3.80;;;3.30;;
11228;SDS011;5671;47.936;8.716;2024-03-02T11:18:03;3.43;;;3.13;;
11228;SDS011;5671;47.936;8.716;2024-03-02T11:20:34;4.13;;;3.20;;
11228;SDS011;5671;47.936;8.716;2024-03-02T11:23:06;3.00;;;2.80;;
11228;SDS011;5671;47.936;8.716;2024-03-02T11:25:35;3.93;;;2.70;;
11228;SDS011;5671;47.936;8.716;2024-03-02T11:28:04;2.63;;;2.30;;
11228;SDS011;5671;47.936;8.716;2024-03-02T11:30:49;3.23;;;2.80;;
11228;SDS011;5671;47.936;8.716;2024-03-02T11:33:24;3.17;;;2.60;;
11228;SDS011;5671;47.936;8.716;2024-03-02T11:35:59;2.80;;;2.60;;
11228;SDS011;5671;47.936;8.716;2024-03-02T11:38:29;3.50;;;2.40;;
11228;SDS011;5671;47.936;8.716;2024-03-02T11:40:57;2.53;;;2.33;;
11228;SDS011;5671;47.936;8.716;2024-03-02T11:43:27;2.30;;;2.10;;
11228;SDS011;5671;47.936;8.716;2024-03-02T11:45:57;2.67;;;2.10;;
11228;SDS011;5671;47.936;8.716;2024-03-02T11:48:24;2.63;;;2.30;;
11228;SDS011;5671;47.936;8.716;2024-03-02T11:50:52;2.10;;;1.90;;
11228;SDS011;5671;47.936;8.716;2024-03-02T11:53:19;2.43;;;1.87;;
11228;SDS011;5671;47.936;8.716;2024-03-02T11:55:48;1.77;;;1.67;;
11228;SDS011;5671;47.936;8.716;2024-03-02T11:58:16;2.17;;;2.00;;
11228;SDS011;5671;47.936;8.716;2024-03-02T12:00:45;2.07;;;1.97;;
11228;SDS011;5671;47.936;8.716;2024-03-02T12:03:13;2.20;;;1.90;;
11228;SDS011;5671;47.936;8.716;2024-03-02T12:05:40;2.43;;;2.00;;
11228;SDS011;5671;47.936;8.716;2024-03-02T12:08:08;2.40;;;2.20;;
11228;SDS011;5671;47.936;8.716;2024-03-02T12:10:36;1.93;;;1.83;;
11228;SDS011;5671;47.936;8.716;2024-03-02T12:13:05;2.20;;;2.00;;
11228;SDS011;5671;47.936;8.716;2024-03-02T12:15:35;3.43;;;2.00;;
11228;SDS011;5671;47.936;8.716;2024-03-02T12:18:05;2.10;;;1.90;;
11228;SDS011;5671;47.936;8.716;2024-03-02T12:20:32;1.80;;;1.70;;
11228;SDS011;5671;47.936;8.716;2024-03-02T12:23:00;1.80;;;1.70;;
11228;SDS011;5671;47.936;8.716;2024-03-02T12:25:28;1.63;;;1.53;;
11228;SDS011;5671;47.936;8.716;2024-03-02T12:27:58;1.60;;;1.50;;
11228;SDS011;5671;47.936;8.716;2024-03-02T12:30:29;1.70;;;1.60;;
11228;SDS011;5671;47.936;8.716;2024-03-02T12:32:56;1.27;;;1.17;;
11228;SDS011;5671;47.936;8.716;2024-03-02T12:35:24;3.47;;;1.70;;
11228;SDS011;5671;47.936;8.716;2024-03-02T12:37:51;1.73;;;1.50;;
11228;SDS011;5671;47.936;8.716;2024-03-02T12:40:19;1.83;;;1.67;;
11228;SDS011;5671;47.936;8.716;2024-03-02T12:42:47;2.17;;;2.03;;
11228;SDS011;5671;47.936;8.716;2024-03-02T12:45:15;3.87;;;2.67;;
11228;SDS011;5671;47.936;8.716;2024-03-02T12:47:50;2.67;;;2.47;;
11228;SDS011;5671;47.936;8.716;2024-03-02T12:50:17;4.03;;;2.93;;
11228;SDS011;5671;47.936;8.716;2024-03-02T12:52:50;4.10;;;3.57;;
11228;SDS011;5671;47.936;8.716;2024-03-02T12:55:17;4.80;;;4.13;;
11228;SDS011;5671;47.936;8.716;2024-03-02T12:57:46;4.17;;;3.77;;
11228;SDS011;5671;47.936;8.716;2024-03-02T13:00:13;4.30;;;3.90;;
11228;SDS011;5671;47.936;8.716;2024-03-02T13:02:40;5.00;;;3.73;;
11228;SDS011;5671;47.936;8.716;2024-03-02T13:05:09;4.93;;;4.53;;
11228;SDS011;5671;47.936;8.716;2024-03-02T13:07:36;4.20;;;3.80;;
11228;SDS011;5671;47.936;8.716;2024-03-02T13:10:03;4.30;;;3.90;;
11228;SDS011;5671;47.936;8.716;2024-03-02T13:12:31;3.70;;;3.30;;
11228;SDS011;5671;47.936;8.716;2024-03-02T13:14:58;3.70;;;3.23;;
11228;SDS011;5671;47.936;8.716;2024-03-02T13:17:25;5.93;;;2.90;;
11228;SDS011;5671;47.936;8.716;2024-03-02T13:19:52;2.70;;;2.47;;
11228;SDS011;5671;47.936;8.716;2024-03-02T13:22:21;2.47;;;2.27;;
11228;SDS011;5671;47.936;8.716;2024-03-02T13:24:48;5.57;;;2.27;;
11228;SDS011;5671;47.936;8.716;2024-03-02T13:27:15;2.30;;;2.10;;
11228;SDS011;5671;47.936;8.716;2024-03-02T13:29:44;1.90;;;1.80;;
11228;SDS011;5671;47.936;8.716;2024-03-02T13:32:11;1.50;;;1.40;;
11228;SDS011;5671;47.936;8.716;2024-03-02T13:34:38;1.70;;;1.60;;
11228;SDS011;5671;47.936;8.716;2024-03-02T13:37:05;1.50;;;1.40;;
11228;SDS011;5671;47.936;8.716;2024-03-02T13:39:33;1.47;;;1.37;;
11228;SDS011;5671;47.936;8.716;2024-03-02T13:42:05;0.90;;;0.90;;
11228;SDS011;5671;47.936;8.716;2024-03-02T13:44:33;1.00;;;0.90;;
11228;SDS011;5671;47.936;8.716;2024-03-02T13:47:00;1.30;;;1.20;;
11228;SDS011;5671;47.936;8.716;2024-03-02T13:49:27;1.20;;;1.20;;
11228;SDS011;5671;47.936;8.716;2024-03-02T13:51:58;0.87;;;0.87;;
11228;SDS011;5671;47.936;8.716;2024-03-02T13:54:28;1.03;;;0.70;;
11228;SDS011;5671;47.936;8.716;2024-03-02T13:56:56;0.50;;;0.50;;
11228;SDS011;5671;47.936;8.716;2024-03-02T13:59:23;0.40;;;0.40;;
11228;SDS011;5671;47.936;8.716;2024-03-02T14:01:51;0.70;;;0.60;;
11228;SDS011;5671;47.936;8.716;2024-03-02T14:04:18;0.60;;;0.60;;
11228;SDS011;5671;47.936;8.716;2024-03-02T14:06:45;0.50;;;0.40;;
11228;SDS011;5671;47.936;8.716;2024-03-02T14:09:12;0.30;;;0.30;;
11228;SDS011;5671;47.936;8.716;2024-03-02T14:11:40;2.57;;;0.50;;
11228;SDS011;5671;47.936;8.716;2024-03-02T14:14:08;0.80;;;0.80;;
11228;SDS011;5671;47.936;8.716;2024-03-02T14:16:34;0.53;;;0.53;;
11228;SDS011;5671;47.936;8.716;2024-03-02T14:19:01;0.87;;;0.70;;
11228;SDS011;5671;47.936;8.716;2024-03-02T14:21:29;2.87;;;0.40;;
11228;SDS011;5671;47.936;8.716;2024-03-02T14:23:56;0.50;;;0.50;;
11228;SDS011;5671;47.936;8.716;2024-03-02T14:26:23;0.50;;;0.50;;
11228;SDS011;5671;47.936;8.716;2024-03-02T14:28:50;0.83;;;0.40;;
11228;SDS011;5671;47.936;8.716;2024-03-02T14:31:18;0.70;;;0.70;;
11228;SDS011;5671;47.936;8.716;2024-03-02T14:33:45;1.60;;;0.60;;
11228;SDS011;5671;47.936;8.716;2024-03-02T14:36:12;0.83;;;0.40;;
11228;SDS011;5671;47.936;8.716;2024-03-02T14:38:39;0.60;;;0.50;;
11228;SDS011;5671;47.936;8.716;2024-03-02T14:41:06;2.93;;;0.50;;
11228;SDS011;5671;47.936;8.716;2024-03-02T14:43:32;0.60;;;0.50;;
11228;SDS011;5671;47.936;8.716;2024-03-02T14:45:59;0.43;;;0.37;;
11228;SDS011;5671;47.936;8.716;2024-03-02T14:48:28;0.70;;;0.70;;
11228;SDS011;5671;47.936;8.716;2024-03-02T14:50:55;1.63;;;0.60;;
11228;SDS011;5671;47.936;8.716;2024-03-02T14:53:22;2.47;;;0.60;;
11228;SDS011;5671;47.936;8.716;2024-03-02T14:55:48;1.10;;;0.77;;